sensor_id;sensor_type;location;lat;lon;timestamp;P1;durP1;ratioP1;P2;durP2;ratioP2
34741;SDS011;20968;42.696;23.360;2023-07-20T00:00:59;5.82;;;1.45;;
34741;SDS011;20968;42.696;23.360;2023-07-20T00:03:24;5.80;;;1.67;;
34741;SDS011;20968;42.696;23.360;2023-07-20T00:05:51;7.60;;;1.27;;
34741;SDS011;20968;42.696;23.360;2023-07-20T00:08:17;8.68;;;1.85;;
34741;SDS011;20968;42.696;23.360;2023-07-20T00:10:43;8.38;;;1.80;;
34741;SDS011;20968;42.696;23.360;2023-07-20T00:13:12;14.90;;;3.80;;
34741;SDS011;20968;42.696;23.360;2023-07-20T00:15:38;6.68;;;1.50;;
34741;SDS011;20968;42.696;23.360;2023-07-20T00:18:04;7.80;;;1.42;;
34741;SDS011;20968;42.696;23.360;2023-07-20T00:20:30;3.85;;;1.42;;
34741;SDS011;20968;42.696;23.360;2023-07-20T00:22:56;4.43;;;1.63;;
34741;SDS011;20968;42.696;23.360;2023-07-20T00:25:23;7.00;;;1.40;;
34741;SDS011;20968;42.696;23.360;2023-07-20T00:27:51;7.72;;;1.20;;
34741;SDS011;20968;42.696;23.360;2023-07-20T00:30:16;3.97;;;1.50;;
34741;SDS011;20968;42.696;23.360;2023-07-20T00:32:42;6.00;;;1.45;;
34741;SDS011;20968;42.696;23.360;2023-07-20T00:35:08;5.20;;;1.80;;
34741;SDS011;20968;42.696;23.360;2023-07-20T00:37:34;4.30;;;1.80;;
34741;SDS011;20968;42.696;23.360;2023-07-20T00:40:00;3.50;;;1.35;;
34741;SDS011;20968;42.696;23.360;2023-07-20T00:42:25;11.95;;;1.83;;
34741;SDS011;20968;42.696;23.360;2023-07-20T00:44:51;3.28;;;1.40;;
34741;SDS011;20968;42.696;23.360;2023-07-20T00:47:16;4.03;;;1.13;;
34741;SDS011;20968;42.696;23.360;2023-07-20T00:49:42;6.97;;;1.98;;
34741;SDS011;20968;42.696;23.360;2023-07-20T00:52:08;3.45;;;1.15;;
34741;SDS011;20968;42.696;23.360;2023-07-20T00:54:36;3.30;;;1.02;;
34741;SDS011;20968;42.696;23.360;2023-07-20T00:57:02;4.25;;;2.22;;
34741;SDS011;20968;42.696;23.360;2023-07-20T00:59:27;7.18;;;2.38;;
34741;SDS011;20968;42.696;23.360;2023-07-20T01:01:53;6.30;;;1.35;;
34741;SDS011;20968;42.696;23.360;2023-07-20T01:04:19;3.47;;;1.83;;
34741;SDS011;20968;42.696;23.360;2023-07-20T01:12:52;6.35;;;1.70;;
34741;SDS011;20968;42.696;23.360;2023-07-20T01:15:08;4.72;;;1.90;;
34741;SDS011;20968;42.696;23.360;2023-07-20T01:17:34;7.70;;;1.73;;
34741;SDS011;20968;42.696;23.360;2023-07-20T01:20:00;3.75;;;1.50;;
34741;SDS011;20968;42.696;23.360;2023-07-20T01:33:45;2.63;;;1.13;;
34741;SDS011;20968;42.696;23.360;2023-07-20T01:36:12;6.00;;;1.40;;
34741;SDS011;20968;42.696;23.360;2023-07-20T01:38:39;4.03;;;1.35;;
34741;SDS011;20968;42.696;23.360;2023-07-20T01:41:05;7.70;;;1.38;;
34741;SDS011;20968;42.696;23.360;2023-07-20T01:43:31;2.83;;;1.30;;
34741;SDS011;20968;42.696;23.360;2023-07-20T01:45:56;3.55;;;1.38;;
34741;SDS011;20968;42.696;23.360;2023-07-20T01:48:22;4.65;;;2.30;;
34741;SDS011;20968;42.696;23.360;2023-07-20T01:50:47;6.93;;;2.38;;
34741;SDS011;20968;42.696;23.360;2023-07-20T01:53:13;8.90;;;1.75;;
34741;SDS011;20968;42.696;23.360;2023-07-20T01:55:38;2.42;;;1.15;;
34741;SDS011;20968;42.696;23.360;2023-07-20T01:58:03;4.57;;;1.40;;
34741;SDS011;20968;42.696;23.360;2023-07-20T02:00:29;3.05;;;1.35;;
34741;SDS011;20968;42.696;23.360;2023-07-20T02:02:55;4.93;;;1.35;;
34741;SDS011;20968;42.696;23.360;2023-07-20T02:05:20;4.35;;;1.90;;
34741;SDS011;20968;42.696;23.360;2023-07-20T02:07:45;9.45;;;1.75;;
34741;SDS011;20968;42.696;23.360;2023-07-20T02:10:11;8.05;;;2.30;;
34741;SDS011;20968;42.696;23.360;2023-07-20T02:12:36;6.60;;;1.10;;
34741;SDS011;20968;42.696;23.360;2023-07-20T02:15:02;7.22;;;1.70;;
34741;SDS011;20968;42.696;23.360;2023-07-20T02:17:28;6.28;;;1.55;;
34741;SDS011;20968;42.696;23.360;2023-07-20T02:19:54;5.15;;;1.20;;
34741;SDS011;20968;42.696;23.360;2023-07-20T02:22:20;5.90;;;1.17;;
34741;SDS011;20968;42.696;23.360;2023-07-20T02:24:46;5.50;;;1.80;;
34741;SDS011;20968;42.696;23.360;2023-07-20T02:27:11;7.90;;;1.90;;
34741;SDS011;20968;42.696;23.360;2023-07-20T02:29:37;9.05;;;1.83;;
34741;SDS011;20968;42.696;23.360;2023-07-20T02:32:03;20.10;;;2.33;;
34741;SDS011;20968;42.696;23.360;2023-07-20T02:34:28;5.97;;;1.75;;
34741;SDS011;20968;42.696;23.360;2023-07-20T02:36:54;4.55;;;1.77;;
34741;SDS011;20968;42.696;23.360;2023-07-20T02:39:22;6.10;;;1.75;;
34741;SDS011;20968;42.696;23.360;2023-07-20T02:41:48;7.22;;;1.13;;
34741;SDS011;20968;42.696;23.360;2023-07-20T02:44:13;2.72;;;1.55;;
34741;SDS011;20968;42.696;23.360;2023-07-20T02:46:39;11.63;;;2.53;;
34741;SDS011;20968;42.696;23.360;2023-07-20T02:49:05;14.23;;;3.65;;
34741;SDS011;20968;42.696;23.360;2023-07-20T02:51:30;9.70;;;2.63;;
34741;SDS011;20968;42.696;23.360;2023-07-20T02:53:55;7.82;;;1.67;;
34741;SDS011;20968;42.696;23.360;2023-07-20T02:56:21;8.40;;;2.13;;
34741;SDS011;20968;42.696;23.360;2023-07-20T02:58:48;4.60;;;1.50;;
34741;SDS011;20968;42.696;23.360;2023-07-20T03:01:13;5.85;;;2.13;;
34741;SDS011;20968;42.696;23.360;2023-07-20T03:03:40;3.83;;;1.50;;
34741;SDS011;20968;42.696;23.360;2023-07-20T03:06:11;6.10;;;3.33;;
34741;SDS011;20968;42.696;23.360;2023-07-20T03:08:40;11.07;;;1.90;;
34741;SDS011;20968;42.696;23.360;2023-07-20T03:11:06;15.88;;;2.38;;
34741;SDS011;20968;42.696;23.360;2023-07-20T03:13:32;5.10;;;1.88;;
34741;SDS011;20968;42.696;23.360;2023-07-20T03:15:58;12.23;;;2.60;;
34741;SDS011;20968;42.696;23.360;2023-07-20T03:18:23;8.68;;;2.67;;
34741;SDS011;20968;42.696;23.360;2023-07-20T03:20:49;5.63;;;2.33;;
34741;SDS011;20968;42.696;23.360;2023-07-20T03:23:14;8.23;;;2.00;;
34741;SDS011;20968;42.696;23.360;2023-07-20T03:25:40;7.38;;;2.22;;
34741;SDS011;20968;42.696;23.360;2023-07-20T03:28:06;5.10;;;1.98;;
34741;SDS011;20968;42.696;23.360;2023-07-20T03:30:31;8.70;;;2.35;;
34741;SDS011;20968;42.696;23.360;2023-07-20T03:32:57;3.75;;;1.75;;
34741;SDS011;20968;42.696;23.360;2023-07-20T03:35:22;3.92;;;1.73;;
34741;SDS011;20968;42.696;23.360;2023-07-20T03:37:48;5.57;;;1.50;;
34741;SDS011;20968;42.696;23.360;2023-07-20T03:40:13;5.55;;;2.10;;
34741;SDS011;20968;42.696;23.360;2023-07-20T03:42:39;7.47;;;1.92;;
34741;SDS011;20968;42.696;23.360;2023-07-20T03:45:05;3.65;;;1.60;;
34741;SDS011;20968;42.696;23.360;2023-07-20T03:47:31;5.05;;;2.10;;
34741;SDS011;20968;42.696;23.360;2023-07-20T03:49:57;12.93;;;2.40;;
34741;SDS011;20968;42.696;23.360;2023-07-20T03:52:22;8.20;;;1.92;;
34741;SDS011;20968;42.696;23.360;2023-07-20T03:54:48;9.38;;;2.53;;
34741;SDS011;20968;42.696;23.360;2023-07-20T03:57:16;5.97;;;1.65;;
34741;SDS011;20968;42.696;23.360;2023-07-20T03:59:44;3.75;;;2.42;;
34741;SDS011;20968;42.696;23.360;2023-07-20T04:02:11;4.35;;;1.88;;
34741;SDS011;20968;42.696;23.360;2023-07-20T04:04:36;5.45;;;1.65;;
34741;SDS011;20968;42.696;23.360;2023-07-20T04:07:02;6.53;;;2.08;;
34741;SDS011;20968;42.696;23.360;2023-07-20T04:09:27;7.90;;;2.33;;
34741;SDS011;20968;42.696;23.360;2023-07-20T04:11:53;5.85;;;2.25;;
34741;SDS011;20968;42.696;23.360;2023-07-20T04:14:19;7.70;;;2.47;;
34741;SDS011;20968;42.696;23.360;2023-07-20T04:16:46;6.00;;;2.50;;
34741;SDS011;20968;42.696;23.360;2023-07-20T04:19:12;15.30;;;2.53;;
34741;SDS011;20968;42.696;23.360;2023-07-20T04:21:40;10.80;;;2.50;;
34741;SDS011;20968;42.696;23.360;2023-07-20T04:24:06;4.90;;;2.00;;
34741;SDS011;20968;42.696;23.360;2023-07-20T04:26:31;7.13;;;2.10;;
34741;SDS011;20968;42.696;23.360;2023-07-20T04:28:57;4.95;;;1.65;;
34741;SDS011;20968;42.696;23.360;2023-07-20T04:31:24;9.35;;;2.38;;
34741;SDS011;20968;42.696;23.360;2023-07-20T04:33:50;6.90;;;2.40;;
34741;SDS011;20968;42.696;23.360;2023-07-20T04:36:15;16.95;;;2.65;;
34741;SDS011;20968;42.696;23.360;2023-07-20T04:38:44;11.55;;;2.42;;
34741;SDS011;20968;42.696;23.360;2023-07-20T04:41:13;10.55;;;1.75;;
34741;SDS011;20968;42.696;23.360;2023-07-20T04:43:42;9.50;;;3.67;;
34741;SDS011;20968;42.696;23.360;2023-07-20T04:46:08;5.53;;;1.90;;
34741;SDS011;20968;42.696;23.360;2023-07-20T04:48:34;6.30;;;2.42;;
34741;SDS011;20968;42.696;23.360;2023-07-20T04:50:59;6.88;;;2.05;;
34741;SDS011;20968;42.696;23.360;2023-07-20T04:53:25;6.35;;;1.90;;
34741;SDS011;20968;42.696;23.360;2023-07-20T04:55:50;10.18;;;2.47;;
34741;SDS011;20968;42.696;23.360;2023-07-20T04:58:16;4.03;;;1.85;;
34741;SDS011;20968;42.696;23.360;2023-07-20T05:00:43;13.75;;;2.33;;
34741;SDS011;20968;42.696;23.360;2023-07-20T05:03:08;9.43;;;2.42;;
34741;SDS011;20968;42.696;23.360;2023-07-20T05:05:34;11.68;;;2.25;;
34741;SDS011;20968;42.696;23.360;2023-07-20T05:07:59;9.77;;;1.77;;
34741;SDS011;20968;42.696;23.360;2023-07-20T05:10:25;4.07;;;2.50;;
34741;SDS011;20968;42.696;23.360;2023-07-20T05:12:50;7.63;;;2.28;;
34741;SDS011;20968;42.696;23.360;2023-07-20T05:15:15;6.57;;;2.72;;
34741;SDS011;20968;42.696;23.360;2023-07-20T05:17:41;8.55;;;2.08;;
34741;SDS011;20968;42.696;23.360;2023-07-20T05:20:07;6.97;;;2.47;;
34741;SDS011;20968;42.696;23.360;2023-07-20T05:22:35;6.82;;;2.25;;
34741;SDS011;20968;42.696;23.360;2023-07-20T05:25:01;5.63;;;2.67;;
34741;SDS011;20968;42.696;23.360;2023-07-20T05:27:26;5.75;;;2.05;;
34741;SDS011;20968;42.696;23.360;2023-07-20T05:29:51;5.28;;;1.90;;
34741;SDS011;20968;42.696;23.360;2023-07-20T05:32:17;10.93;;;3.13;;
34741;SDS011;20968;42.696;23.360;2023-07-20T05:34:43;14.95;;;2.30;;
34741;SDS011;20968;42.696;23.360;2023-07-20T05:37:11;6.40;;;1.83;;
34741;SDS011;20968;42.696;23.360;2023-07-20T05:39:37;5.57;;;2.45;;
34741;SDS011;20968;42.696;23.360;2023-07-20T05:42:02;7.03;;;3.00;;
34741;SDS011;20968;42.696;23.360;2023-07-20T05:44:28;8.05;;;2.85;;
34741;SDS011;20968;42.696;23.360;2023-07-20T05:46:54;13.70;;;2.70;;
34741;SDS011;20968;42.696;23.360;2023-07-20T05:49:19;8.90;;;4.85;;
34741;SDS011;20968;42.696;23.360;2023-07-20T05:51:44;10.95;;;3.28;;
34741;SDS011;20968;42.696;23.360;2023-07-20T05:54:11;19.70;;;4.28;;
34741;SDS011;20968;42.696;23.360;2023-07-20T05:56:37;11.93;;;3.88;;
34741;SDS011;20968;42.696;23.360;2023-07-20T05:59:02;16.83;;;4.43;;
34741;SDS011;20968;42.696;23.360;2023-07-20T06:01:27;12.75;;;4.03;;
34741;SDS011;20968;42.696;23.360;2023-07-20T06:03:53;16.80;;;3.53;;
34741;SDS011;20968;42.696;23.360;2023-07-20T06:06:19;6.18;;;2.75;;
34741;SDS011;20968;42.696;23.360;2023-07-20T06:08:44;15.18;;;4.63;;
34741;SDS011;20968;42.696;23.360;2023-07-20T06:11:10;13.82;;;4.07;;
34741;SDS011;20968;42.696;23.360;2023-07-20T06:13:36;7.93;;;2.90;;
34741;SDS011;20968;42.696;23.360;2023-07-20T06:16:01;12.02;;;2.90;;
34741;SDS011;20968;42.696;23.360;2023-07-20T06:18:28;8.13;;;3.75;;
34741;SDS011;20968;42.696;23.360;2023-07-20T06:20:55;9.23;;;3.80;;
34741;SDS011;20968;42.696;23.360;2023-07-20T06:23:20;6.88;;;2.45;;
34741;SDS011;20968;42.696;23.360;2023-07-20T06:25:46;8.48;;;2.88;;
34741;SDS011;20968;42.696;23.360;2023-07-20T06:28:12;6.03;;;2.58;;
34741;SDS011;20968;42.696;23.360;2023-07-20T06:30:38;4.43;;;2.80;;
34741;SDS011;20968;42.696;23.360;2023-07-20T06:33:04;11.75;;;2.88;;
34741;SDS011;20968;42.696;23.360;2023-07-20T06:35:30;8.40;;;3.70;;
34741;SDS011;20968;42.696;23.360;2023-07-20T06:37:55;15.27;;;3.22;;
34741;SDS011;20968;42.696;23.360;2023-07-20T06:40:20;10.57;;;3.95;;
34741;SDS011;20968;42.696;23.360;2023-07-20T06:42:46;14.35;;;3.15;;
34741;SDS011;20968;42.696;23.360;2023-07-20T06:45:12;17.80;;;3.70;;
34741;SDS011;20968;42.696;23.360;2023-07-20T06:47:38;9.40;;;3.47;;
34741;SDS011;20968;42.696;23.360;2023-07-20T06:50:05;9.60;;;3.58;;
34741;SDS011;20968;42.696;23.360;2023-07-20T06:52:31;9.75;;;3.03;;
34741;SDS011;20968;42.696;23.360;2023-07-20T06:54:57;12.25;;;3.33;;
34741;SDS011;20968;42.696;23.360;2023-07-20T06:57:22;8.35;;;3.33;;
34741;SDS011;20968;42.696;23.360;2023-07-20T06:59:48;12.25;;;4.55;;
34741;SDS011;20968;42.696;23.360;2023-07-20T07:02:13;12.20;;;3.05;;
34741;SDS011;20968;42.696;23.360;2023-07-20T07:04:39;12.23;;;3.65;;
34741;SDS011;20968;42.696;23.360;2023-07-20T07:07:05;8.52;;;4.07;;
34741;SDS011;20968;42.696;23.360;2023-07-20T07:09:30;7.00;;;3.15;;
34741;SDS011;20968;42.696;23.360;2023-07-20T07:11:56;7.13;;;3.08;;
34741;SDS011;20968;42.696;23.360;2023-07-20T07:14:22;10.38;;;2.83;;
34741;SDS011;20968;42.696;23.360;2023-07-20T07:16:47;6.82;;;3.17;;
34741;SDS011;20968;42.696;23.360;2023-07-20T07:19:13;14.05;;;4.18;;
34741;SDS011;20968;42.696;23.360;2023-07-20T07:21:38;8.48;;;3.97;;
34741;SDS011;20968;42.696;23.360;2023-07-20T07:24:04;11.80;;;3.20;;
34741;SDS011;20968;42.696;23.360;2023-07-20T07:26:32;10.43;;;3.22;;
34741;SDS011;20968;42.696;23.360;2023-07-20T07:28:57;6.35;;;2.97;;
34741;SDS011;20968;42.696;23.360;2023-07-20T07:31:24;10.48;;;3.35;;
34741;SDS011;20968;42.696;23.360;2023-07-20T07:33:50;7.18;;;3.08;;
34741;SDS011;20968;42.696;23.360;2023-07-20T07:36:16;18.48;;;4.07;;
34741;SDS011;20968;42.696;23.360;2023-07-20T07:38:41;6.35;;;3.60;;
34741;SDS011;20968;42.696;23.360;2023-07-20T07:41:07;11.93;;;2.30;;
34741;SDS011;20968;42.696;23.360;2023-07-20T07:43:33;9.27;;;2.85;;
34741;SDS011;20968;42.696;23.360;2023-07-20T07:46:00;8.88;;;3.25;;
34741;SDS011;20968;42.696;23.360;2023-07-20T07:48:25;8.50;;;2.72;;
34741;SDS011;20968;42.696;23.360;2023-07-20T07:50:51;9.30;;;2.50;;
34741;SDS011;20968;42.696;23.360;2023-07-20T07:53:16;7.97;;;2.85;;
34741;SDS011;20968;42.696;23.360;2023-07-20T07:55:41;10.15;;;3.83;;
34741;SDS011;20968;42.696;23.360;2023-07-20T07:58:07;10.52;;;2.80;;
34741;SDS011;20968;42.696;23.360;2023-07-20T08:00:33;7.68;;;3.13;;
34741;SDS011;20968;42.696;23.360;2023-07-20T08:02:58;9.65;;;2.90;;
34741;SDS011;20968;42.696;23.360;2023-07-20T08:05:24;6.20;;;3.58;;
34741;SDS011;20968;42.696;23.360;2023-07-20T08:07:49;9.70;;;3.25;;
34741;SDS011;20968;42.696;23.360;2023-07-20T08:10:15;5.88;;;2.83;;
34741;SDS011;20968;42.696;23.360;2023-07-20T08:12:40;9.90;;;2.72;;
34741;SDS011;20968;42.696;23.360;2023-07-20T08:15:06;11.52;;;2.88;;
34741;SDS011;20968;42.696;23.360;2023-07-20T08:17:32;8.48;;;2.58;;
34741;SDS011;20968;42.696;23.360;2023-07-20T08:19:57;6.18;;;2.75;;
34741;SDS011;20968;42.696;23.360;2023-07-20T08:22:23;14.05;;;3.67;;
34741;SDS011;20968;42.696;23.360;2023-07-20T08:24:48;18.58;;;3.70;;
34741;SDS011;20968;42.696;23.360;2023-07-20T08:27:14;11.73;;;2.97;;
34741;SDS011;20968;42.696;23.360;2023-07-20T08:29:39;7.20;;;2.42;;
34741;SDS011;20968;42.696;23.360;2023-07-20T08:32:05;14.75;;;4.20;;
34741;SDS011;20968;42.696;23.360;2023-07-20T08:34:31;18.48;;;2.67;;
34741;SDS011;20968;42.696;23.360;2023-07-20T08:36:57;16.17;;;2.50;;
34741;SDS011;20968;42.696;23.360;2023-07-20T08:39:23;12.35;;;2.13;;
34741;SDS011;20968;42.696;23.360;2023-07-20T08:41:49;5.88;;;2.05;;
34741;SDS011;20968;42.696;23.360;2023-07-20T08:44:17;12.73;;;2.03;;
34741;SDS011;20968;42.696;23.360;2023-07-20T08:46:42;5.85;;;2.22;;
34741;SDS011;20968;42.696;23.360;2023-07-20T08:49:08;6.97;;;1.77;;
34741;SDS011;20968;42.696;23.360;2023-07-20T08:51:36;9.07;;;2.10;;
34741;SDS011;20968;42.696;23.360;2023-07-20T08:54:02;8.13;;;2.45;;
34741;SDS011;20968;42.696;23.360;2023-07-20T08:56:27;5.20;;;1.65;;
34741;SDS011;20968;42.696;23.360;2023-07-20T08:58:54;7.65;;;2.22;;
34741;SDS011;20968;42.696;23.360;2023-07-20T09:01:21;5.55;;;1.80;;
34741;SDS011;20968;42.696;23.360;2023-07-20T09:03:47;8.82;;;2.10;;
34741;SDS011;20968;42.696;23.360;2023-07-20T09:06:13;5.68;;;3.20;;
34741;SDS011;20968;42.696;23.360;2023-07-20T09:08:42;13.98;;;1.85;;
34741;SDS011;20968;42.696;23.360;2023-07-20T09:11:12;4.65;;;1.50;;
34741;SDS011;20968;42.696;23.360;2023-07-20T09:13:41;14.95;;;1.90;;
34741;SDS011;20968;42.696;23.360;2023-07-20T09:16:06;7.88;;;1.77;;
34741;SDS011;20968;42.696;23.360;2023-07-20T09:18:32;5.32;;;1.75;;
34741;SDS011;20968;42.696;23.360;2023-07-20T09:21:02;9.20;;;2.13;;
34741;SDS011;20968;42.696;23.360;2023-07-20T09:23:35;10.80;;;1.58;;
34741;SDS011;20968;42.696;23.360;2023-07-20T09:26:13;5.60;;;1.95;;
34741;SDS011;20968;42.696;23.360;2023-07-20T09:28:51;6.28;;;1.67;;
34741;SDS011;20968;42.696;23.360;2023-07-20T09:31:18;10.30;;;1.83;;
34741;SDS011;20968;42.696;23.360;2023-07-20T09:33:45;5.57;;;2.03;;
34741;SDS011;20968;42.696;23.360;2023-07-20T09:36:11;6.75;;;2.10;;
34741;SDS011;20968;42.696;23.360;2023-07-20T09:38:37;12.63;;;2.58;;
34741;SDS011;20968;42.696;23.360;2023-07-20T09:41:06;8.85;;;2.38;;
34741;SDS011;20968;42.696;23.360;2023-07-20T09:43:31;5.60;;;2.10;;
34741;SDS011;20968;42.696;23.360;2023-07-20T09:45:59;7.22;;;3.13;;
34741;SDS011;20968;42.696;23.360;2023-07-20T09:48:25;4.22;;;1.70;;
34741;SDS011;20968;42.696;23.360;2023-07-20T09:50:53;5.53;;;2.75;;
34741;SDS011;20968;42.696;23.360;2023-07-20T09:53:20;7.70;;;1.75;;
34741;SDS011;20968;42.696;23.360;2023-07-20T09:55:46;8.73;;;2.05;;
34741;SDS011;20968;42.696;23.360;2023-07-20T09:58:13;10.70;;;2.90;;
34741;SDS011;20968;42.696;23.360;2023-07-20T10:00:40;8.90;;;2.30;;
34741;SDS011;20968;42.696;23.360;2023-07-20T10:03:08;8.20;;;2.58;;
34741;SDS011;20968;42.696;23.360;2023-07-20T10:05:36;6.65;;;2.05;;
34741;SDS011;20968;42.696;23.360;2023-07-20T10:08:09;4.72;;;1.73;;
34741;SDS011;20968;42.696;23.360;2023-07-20T10:10:36;3.63;;;1.98;;
34741;SDS011;20968;42.696;23.360;2023-07-20T10:13:05;6.95;;;2.30;;
34741;SDS011;20968;42.696;23.360;2023-07-20T10:16:09;7.25;;;1.67;;
34741;SDS011;20968;42.696;23.360;2023-07-20T10:18:30;3.78;;;1.65;;
34741;SDS011;20968;42.696;23.360;2023-07-20T10:21:03;7.40;;;2.03;;
34741;SDS011;20968;42.696;23.360;2023-07-20T10:23:32;10.25;;;2.08;;
34741;SDS011;20968;42.696;23.360;2023-07-20T10:25:58;10.27;;;2.90;;
34741;SDS011;20968;42.696;23.360;2023-07-20T10:28:25;14.13;;;2.20;;
34741;SDS011;20968;42.696;23.360;2023-07-20T10:30:51;4.68;;;1.83;;
34741;SDS011;20968;42.696;23.360;2023-07-20T10:33:18;4.40;;;1.73;;
34741;SDS011;20968;42.696;23.360;2023-07-20T10:35:51;10.52;;;1.77;;
34741;SDS011;20968;42.696;23.360;2023-07-20T10:43:57;5.45;;;1.88;;
34741;SDS011;20968;42.696;23.360;2023-07-20T10:49:05;10.38;;;1.85;;
34741;SDS011;20968;42.696;23.360;2023-07-20T10:51:42;5.55;;;1.77;;
34741;SDS011;20968;42.696;23.360;2023-07-20T10:56:41;8.00;;;2.08;;
34741;SDS011;20968;42.696;23.360;2023-07-20T10:59:52;6.55;;;1.60;;
34741;SDS011;20968;42.696;23.360;2023-07-20T11:01:56;6.25;;;1.98;;
34741;SDS011;20968;42.696;23.360;2023-07-20T11:04:44;4.50;;;2.22;;
34741;SDS011;20968;42.696;23.360;2023-07-20T11:07:56;7.20;;;1.83;;
34741;SDS011;20968;42.696;23.360;2023-07-20T11:10:14;2.92;;;1.38;;
34741;SDS011;20968;42.696;23.360;2023-07-20T11:12:40;6.38;;;1.77;;
34741;SDS011;20968;42.696;23.360;2023-07-20T11:15:06;6.57;;;2.28;;
34741;SDS011;20968;42.696;23.360;2023-07-20T11:17:32;5.38;;;1.75;;
34741;SDS011;20968;42.696;23.360;2023-07-20T11:19:59;3.88;;;1.67;;
34741;SDS011;20968;42.696;23.360;2023-07-20T11:22:30;8.18;;;1.85;;
34741;SDS011;20968;42.696;23.360;2023-07-20T11:24:56;6.25;;;2.25;;
34741;SDS011;20968;42.696;23.360;2023-07-20T11:27:23;3.92;;;2.20;;
34741;SDS011;20968;42.696;23.360;2023-07-20T11:29:48;13.73;;;2.63;;
34741;SDS011;20968;42.696;23.360;2023-07-20T11:32:24;5.10;;;2.45;;
34741;SDS011;20968;42.696;23.360;2023-07-20T11:34:49;6.05;;;1.77;;
34741;SDS011;20968;42.696;23.360;2023-07-20T11:37:16;7.43;;;2.33;;
34741;SDS011;20968;42.696;23.360;2023-07-20T11:39:42;13.02;;;3.55;;
34741;SDS011;20968;42.696;23.360;2023-07-20T11:42:07;4.28;;;1.77;;
34741;SDS011;20968;42.696;23.360;2023-07-20T11:44:33;5.95;;;2.42;;
34741;SDS011;20968;42.696;23.360;2023-07-20T11:47:02;4.82;;;1.95;;
34741;SDS011;20968;42.696;23.360;2023-07-20T11:49:37;8.40;;;2.55;;
34741;SDS011;20968;42.696;23.360;2023-07-20T11:52:04;6.32;;;2.90;;
34741;SDS011;20968;42.696;23.360;2023-07-20T11:54:35;3.60;;;2.00;;
34741;SDS011;20968;42.696;23.360;2023-07-20T11:57:02;4.18;;;2.30;;
34741;SDS011;20968;42.696;23.360;2023-07-20T11:59:28;5.20;;;2.15;;
34741;SDS011;20968;42.696;23.360;2023-07-20T12:01:54;5.03;;;2.42;;
34741;SDS011;20968;42.696;23.360;2023-07-20T12:04:22;10.32;;;3.58;;
34741;SDS011;20968;42.696;23.360;2023-07-20T12:06:47;7.60;;;2.10;;
34741;SDS011;20968;42.696;23.360;2023-07-20T12:09:17;8.20;;;2.00;;
34741;SDS011;20968;42.696;23.360;2023-07-20T12:11:43;8.10;;;2.00;;
34741;SDS011;20968;42.696;23.360;2023-07-20T12:14:10;5.65;;;2.20;;
34741;SDS011;20968;42.696;23.360;2023-07-20T12:16:36;12.32;;;2.83;;
34741;SDS011;20968;42.696;23.360;2023-07-20T12:19:07;7.78;;;2.58;;
34741;SDS011;20968;42.696;23.360;2023-07-20T12:21:35;9.13;;;1.80;;
34741;SDS011;20968;42.696;23.360;2023-07-20T12:24:05;5.43;;;2.22;;
34741;SDS011;20968;42.696;23.360;2023-07-20T12:26:31;8.50;;;1.90;;
34741;SDS011;20968;42.696;23.360;2023-07-20T12:28:57;7.20;;;2.08;;
34741;SDS011;20968;42.696;23.360;2023-07-20T12:31:24;8.00;;;2.15;;
34741;SDS011;20968;42.696;23.360;2023-07-20T12:33:51;16.85;;;2.78;;
34741;SDS011;20968;42.696;23.360;2023-07-20T12:36:17;7.00;;;2.45;;
34741;SDS011;20968;42.696;23.360;2023-07-20T12:38:44;6.82;;;3.10;;
34741;SDS011;20968;42.696;23.360;2023-07-20T12:41:10;6.10;;;2.15;;
34741;SDS011;20968;42.696;23.360;2023-07-20T12:43:40;10.27;;;2.05;;
34741;SDS011;20968;42.696;23.360;2023-07-20T12:46:06;5.55;;;2.15;;
34741;SDS011;20968;42.696;23.360;2023-07-20T12:48:32;8.10;;;2.08;;
34741;SDS011;20968;42.696;23.360;2023-07-20T12:50:58;7.18;;;2.00;;
34741;SDS011;20968;42.696;23.360;2023-07-20T12:53:23;9.10;;;1.63;;
34741;SDS011;20968;42.696;23.360;2023-07-20T12:55:49;4.00;;;1.73;;
34741;SDS011;20968;42.696;23.360;2023-07-20T12:58:14;16.63;;;2.47;;
34741;SDS011;20968;42.696;23.360;2023-07-20T13:00:40;12.90;;;2.30;;
34741;SDS011;20968;42.696;23.360;2023-07-20T13:03:06;18.63;;;4.18;;
34741;SDS011;20968;42.696;23.360;2023-07-20T13:05:33;7.38;;;1.90;;
34741;SDS011;20968;42.696;23.360;2023-07-20T13:08:00;6.65;;;2.03;;
34741;SDS011;20968;42.696;23.360;2023-07-20T13:10:26;10.45;;;2.20;;
34741;SDS011;20968;42.696;23.360;2023-07-20T13:12:52;7.53;;;2.70;;
34741;SDS011;20968;42.696;23.360;2023-07-20T13:15:17;5.47;;;1.92;;
34741;SDS011;20968;42.696;23.360;2023-07-20T13:17:43;6.13;;;1.83;;
34741;SDS011;20968;42.696;23.360;2023-07-20T13:20:09;6.97;;;2.20;;
34741;SDS011;20968;42.696;23.360;2023-07-20T13:22:39;7.72;;;1.95;;
34741;SDS011;20968;42.696;23.360;2023-07-20T13:25:05;4.22;;;1.75;;
34741;SDS011;20968;42.696;23.360;2023-07-20T13:27:31;4.93;;;2.00;;
34741;SDS011;20968;42.696;23.360;2023-07-20T13:29:58;7.85;;;1.85;;
34741;SDS011;20968;42.696;23.360;2023-07-20T13:32:23;11.00;;;3.45;;
34741;SDS011;20968;42.696;23.360;2023-07-20T13:34:49;15.50;;;2.22;;
34741;SDS011;20968;42.696;23.360;2023-07-20T13:37:14;7.75;;;1.85;;
34741;SDS011;20968;42.696;23.360;2023-07-20T13:39:41;9.35;;;2.72;;
34741;SDS011;20968;42.696;23.360;2023-07-20T13:42:06;7.10;;;2.22;;
34741;SDS011;20968;42.696;23.360;2023-07-20T13:44:32;12.30;;;2.47;;
34741;SDS011;20968;42.696;23.360;2023-07-20T13:46:57;9.25;;;1.63;;
34741;SDS011;20968;42.696;23.360;2023-07-20T13:49:23;4.78;;;1.40;;
34741;SDS011;20968;42.696;23.360;2023-07-20T13:51:49;3.47;;;1.63;;
34741;SDS011;20968;42.696;23.360;2023-07-20T13:54:14;7.38;;;1.77;;
34741;SDS011;20968;42.696;23.360;2023-07-20T13:56:40;8.75;;;3.03;;
34741;SDS011;20968;42.696;23.360;2023-07-20T13:59:05;11.90;;;2.67;;
34741;SDS011;20968;42.696;23.360;2023-07-20T14:01:31;5.57;;;1.75;;
34741;SDS011;20968;42.696;23.360;2023-07-20T14:03:58;8.95;;;2.47;;
34741;SDS011;20968;42.696;23.360;2023-07-20T14:06:24;7.40;;;1.75;;
34741;SDS011;20968;42.696;23.360;2023-07-20T14:08:50;13.23;;;2.03;;
34741;SDS011;20968;42.696;23.360;2023-07-20T14:11:17;4.22;;;1.48;;
34741;SDS011;20968;42.696;23.360;2023-07-20T14:13:42;5.43;;;2.08;;
34741;SDS011;20968;42.696;23.360;2023-07-20T14:16:08;11.88;;;2.10;;
34741;SDS011;20968;42.696;23.360;2023-07-20T14:18:33;6.00;;;1.60;;
34741;SDS011;20968;42.696;23.360;2023-07-20T14:20:59;6.43;;;1.55;;
34741;SDS011;20968;42.696;23.360;2023-07-20T14:23:25;6.03;;;1.20;;
34741;SDS011;20968;42.696;23.360;2023-07-20T14:25:50;5.65;;;1.73;;
34741;SDS011;20968;42.696;23.360;2023-07-20T14:28:15;10.00;;;1.58;;
34741;SDS011;20968;42.696;23.360;2023-07-20T14:30:41;7.20;;;1.45;;
34741;SDS011;20968;42.696;23.360;2023-07-20T14:33:07;9.23;;;2.00;;
34741;SDS011;20968;42.696;23.360;2023-07-20T14:35:33;16.30;;;2.08;;
34741;SDS011;20968;42.696;23.360;2023-07-20T14:37:59;8.32;;;1.83;;
34741;SDS011;20968;42.696;23.360;2023-07-20T14:40:25;3.90;;;2.38;;
34741;SDS011;20968;42.696;23.360;2023-07-20T14:42:50;6.85;;;1.90;;
34741;SDS011;20968;42.696;23.360;2023-07-20T14:45:16;4.95;;;1.58;;
34741;SDS011;20968;42.696;23.360;2023-07-20T14:47:42;7.72;;;1.83;;
34741;SDS011;20968;42.696;23.360;2023-07-20T14:50:08;6.20;;;2.17;;
34741;SDS011;20968;42.696;23.360;2023-07-20T14:52:34;6.47;;;2.80;;
34741;SDS011;20968;42.696;23.360;2023-07-20T14:54:59;9.25;;;1.55;;